sensor_id;sensor_type;location;lat;lon;timestamp;P1;durP1;ratioP1;P2;durP2;ratioP2
5010;SDS011;2524;54.364;10.072;2022-10-31T00:00:17;16.77;;;13.27;;
5010;SDS011;2524;54.364;10.072;2022-10-31T00:02:43;15.97;;;13.10;;
5010;SDS011;2524;54.364;10.072;2022-10-31T00:05:08;19.47;;;15.33;;
5010;SDS011;2524;54.364;10.072;2022-10-31T00:07:34;22.30;;;16.63;;
5010;SDS011;2524;54.364;10.072;2022-10-31T00:09:59;18.57;;;14.70;;
5010;SDS011;2524;54.364;10.072;2022-10-31T00:12:25;21.57;;;16.63;;
5010;SDS011;2524;54.364;10.072;2022-10-31T00:14:51;22.50;;;17.53;;
5010;SDS011;2524;54.364;10.072;2022-10-31T00:17:17;21.23;;;16.33;;
5010;SDS011;2524;54.364;10.072;2022-10-31T00:19:42;20.20;;;16.20;;
5010;SDS011;2524;54.364;10.072;2022-10-31T00:22:08;17.50;;;13.77;;
5010;SDS011;2524;54.364;10.072;2022-10-31T00:24:34;19.23;;;14.10;;
5010;SDS011;2524;54.364;10.072;2022-10-31T00:26:59;20.83;;;16.20;;
5010;SDS011;2524;54.364;10.072;2022-10-31T00:29:25;17.30;;;14.40;;
5010;SDS011;2524;54.364;10.072;2022-10-31T00:31:51;17.73;;;14.30;;
5010;SDS011;2524;54.364;10.072;2022-10-31T00:34:17;17.33;;;14.93;;
5010;SDS011;2524;54.364;10.072;2022-10-31T00:36:42;16.70;;;14.43;;
5010;SDS011;2524;54.364;10.072;2022-10-31T00:39:08;17.87;;;15.27;;
5010;SDS011;2524;54.364;10.072;2022-10-31T00:41:34;16.57;;;14.30;;
5010;SDS011;2524;54.364;10.072;2022-10-31T00:43:59;21.70;;;15.80;;
5010;SDS011;2524;54.364;10.072;2022-10-31T00:46:25;17.43;;;13.50;;
5010;SDS011;2524;54.364;10.072;2022-10-31T00:48:50;17.57;;;13.87;;
5010;SDS011;2524;54.364;10.072;2022-10-31T00:51:16;15.00;;;13.07;;
5010;SDS011;2524;54.364;10.072;2022-10-31T00:53:42;18.20;;;14.90;;
5010;SDS011;2524;54.364;10.072;2022-10-31T00:56:07;20.87;;;14.47;;
5010;SDS011;2524;54.364;10.072;2022-10-31T00:58:33;16.87;;;13.70;;
5010;SDS011;2524;54.364;10.072;2022-10-31T01:00:58;16.20;;;13.20;;
5010;SDS011;2524;54.364;10.072;2022-10-31T01:03:28;19.17;;;13.63;;
5010;SDS011;2524;54.364;10.072;2022-10-31T01:06:03;15.83;;;13.10;;
5010;SDS011;2524;54.364;10.072;2022-10-31T01:08:29;13.33;;;11.90;;
5010;SDS011;2524;54.364;10.072;2022-10-31T01:10:59;13.07;;;11.70;;
5010;SDS011;2524;54.364;10.072;2022-10-31T01:13:38;11.83;;;10.53;;
5010;SDS011;2524;54.364;10.072;2022-10-31T01:16:04;15.03;;;11.20;;
5010;SDS011;2524;54.364;10.072;2022-10-31T01:18:31;11.77;;;10.33;;
5010;SDS011;2524;54.364;10.072;2022-10-31T01:23:51;13.37;;;10.90;;
5010;SDS011;2524;54.364;10.072;2022-10-31T01:26:19;12.87;;;11.37;;
5010;SDS011;2524;54.364;10.072;2022-10-31T01:28:51;11.27;;;10.07;;
5010;SDS011;2524;54.364;10.072;2022-10-31T01:31:18;10.60;;;9.50;;
5010;SDS011;2524;54.364;10.072;2022-10-31T01:33:45;10.93;;;9.80;;
5010;SDS011;2524;54.364;10.072;2022-10-31T01:36:22;9.10;;;8.30;;
5010;SDS011;2524;54.364;10.072;2022-10-31T01:38:51;9.53;;;8.53;;
5010;SDS011;2524;54.364;10.072;2022-10-31T01:41:18;10.37;;;9.20;;
5010;SDS011;2524;54.364;10.072;2022-10-31T01:49:24;12.00;;;10.73;;
5010;SDS011;2524;54.364;10.072;2022-10-31T01:51:58;12.53;;;10.53;;
5010;SDS011;2524;54.364;10.072;2022-10-31T01:54:30;11.87;;;9.90;;
5010;SDS011;2524;54.364;10.072;2022-10-31T01:57:02;9.80;;;8.80;;
5010;SDS011;2524;54.364;10.072;2022-10-31T01:59:29;8.80;;;8.00;;
5010;SDS011;2524;54.364;10.072;2022-10-31T02:01:57;10.20;;;9.00;;
5010;SDS011;2524;54.364;10.072;2022-10-31T02:04:23;12.43;;;10.03;;
5010;SDS011;2524;54.364;10.072;2022-10-31T02:06:54;11.07;;;9.97;;
5010;SDS011;2524;54.364;10.072;2022-10-31T02:09:24;11.40;;;10.07;;
5010;SDS011;2524;54.364;10.072;2022-10-31T02:11:51;9.60;;;8.70;;
5010;SDS011;2524;54.364;10.072;2022-10-31T02:14:20;11.23;;;10.03;;
5010;SDS011;2524;54.364;10.072;2022-10-31T02:16:48;9.73;;;8.87;;
5010;SDS011;2524;54.364;10.072;2022-10-31T02:19:15;10.57;;;9.47;;
5010;SDS011;2524;54.364;10.072;2022-10-31T02:21:50;10.53;;;8.87;;
5010;SDS011;2524;54.364;10.072;2022-10-31T02:24:44;8.43;;;7.63;;
5010;SDS011;2524;54.364;10.072;2022-10-31T02:27:54;8.00;;;7.30;;
5010;SDS011;2524;54.364;10.072;2022-10-31T02:30:40;8.73;;;7.93;;
5010;SDS011;2524;54.364;10.072;2022-10-31T02:35:50;8.63;;;7.83;;
5010;SDS011;2524;54.364;10.072;2022-10-31T02:43:54;8.43;;;7.63;;
5010;SDS011;2524;54.364;10.072;2022-10-31T02:46:49;11.60;;;10.40;;
5010;SDS011;2524;54.364;10.072;2022-10-31T02:52:16;11.40;;;10.00;;
5010;SDS011;2524;54.364;10.072;2022-10-31T02:54:45;11.33;;;10.13;;
5010;SDS011;2524;54.364;10.072;2022-10-31T02:57:12;11.57;;;10.00;;
5010;SDS011;2524;54.364;10.072;2022-10-31T02:59:40;10.43;;;8.70;;
5010;SDS011;2524;54.364;10.072;2022-10-31T03:13:21;17.77;;;15.93;;
5010;SDS011;2524;54.364;10.072;2022-10-31T03:16:07;12.27;;;10.97;;
5010;SDS011;2524;54.364;10.072;2022-10-31T03:18:49;12.20;;;11.00;;
5010;SDS011;2524;54.364;10.072;2022-10-31T03:21:29;10.60;;;9.40;;
5010;SDS011;2524;54.364;10.072;2022-10-31T03:23:59;10.97;;;9.13;;
5010;SDS011;2524;54.364;10.072;2022-10-31T03:26:26;9.67;;;8.67;;
5010;SDS011;2524;54.364;10.072;2022-10-31T03:28:57;9.80;;;8.57;;
5010;SDS011;2524;54.364;10.072;2022-10-31T03:31:28;8.80;;;8.00;;
5010;SDS011;2524;54.364;10.072;2022-10-31T03:33:57;8.33;;;7.43;;
5010;SDS011;2524;54.364;10.072;2022-10-31T03:36:24;9.57;;;8.67;;
5010;SDS011;2524;54.364;10.072;2022-10-31T03:38:51;10.10;;;9.10;;
5010;SDS011;2524;54.364;10.072;2022-10-31T03:41:19;9.00;;;8.20;;
5010;SDS011;2524;54.364;10.072;2022-10-31T03:43:52;14.73;;;13.20;;
5010;SDS011;2524;54.364;10.072;2022-10-31T03:46:22;11.53;;;10.40;;
5010;SDS011;2524;54.364;10.072;2022-10-31T03:48:49;11.97;;;10.77;;
5010;SDS011;2524;54.364;10.072;2022-10-31T03:51:17;12.97;;;11.53;;
5010;SDS011;2524;54.364;10.072;2022-10-31T03:53:52;11.10;;;10.00;;
5010;SDS011;2524;54.364;10.072;2022-10-31T03:56:29;11.07;;;9.97;;
5010;SDS011;2524;54.364;10.072;2022-10-31T03:59:02;10.50;;;9.40;;
5010;SDS011;2524;54.364;10.072;2022-10-31T04:01:34;11.03;;;10.03;;
5010;SDS011;2524;54.364;10.072;2022-10-31T04:04:03;12.00;;;10.73;;
5010;SDS011;2524;54.364;10.072;2022-10-31T04:06:31;9.87;;;8.90;;
5010;SDS011;2524;54.364;10.072;2022-10-31T04:09:02;8.40;;;7.60;;
5010;SDS011;2524;54.364;10.072;2022-10-31T04:11:31;14.93;;;13.33;;
5010;SDS011;2524;54.364;10.072;2022-10-31T04:14:00;11.37;;;10.30;;
5010;SDS011;2524;54.364;10.072;2022-10-31T04:16:27;11.47;;;10.30;;
5010;SDS011;2524;54.364;10.072;2022-10-31T04:18:53;10.93;;;9.60;;
5010;SDS011;2524;54.364;10.072;2022-10-31T04:21:19;9.83;;;8.83;;
5010;SDS011;2524;54.364;10.072;2022-10-31T04:23:51;8.97;;;8.13;;
5010;SDS011;2524;54.364;10.072;2022-10-31T04:26:16;10.30;;;9.30;;
5010;SDS011;2524;54.364;10.072;2022-10-31T04:28:42;11.90;;;10.70;;
5010;SDS011;2524;54.364;10.072;2022-10-31T04:31:08;16.03;;;14.43;;
5010;SDS011;2524;54.364;10.072;2022-10-31T04:33:36;12.97;;;11.70;;
5010;SDS011;2524;54.364;10.072;2022-10-31T04:36:01;12.30;;;10.40;;
5010;SDS011;2524;54.364;10.072;2022-10-31T04:38:27;11.67;;;10.43;;
5010;SDS011;2524;54.364;10.072;2022-10-31T04:40:53;11.30;;;10.07;;
5010;SDS011;2524;54.364;10.072;2022-10-31T04:43:18;12.97;;;11.23;;
5010;SDS011;2524;54.364;10.072;2022-10-31T04:45:44;15.80;;;14.10;;
5010;SDS011;2524;54.364;10.072;2022-10-31T04:48:09;15.67;;;14.00;;
5010;SDS011;2524;54.364;10.072;2022-10-31T04:50:35;14.00;;;12.50;;
5010;SDS011;2524;54.364;10.072;2022-10-31T04:53:00;13.13;;;11.73;;
5010;SDS011;2524;54.364;10.072;2022-10-31T04:55:26;12.77;;;10.17;;
5010;SDS011;2524;54.364;10.072;2022-10-31T04:57:52;19.53;;;15.70;;
5010;SDS011;2524;54.364;10.072;2022-10-31T05:00:18;13.17;;;11.87;;
5010;SDS011;2524;54.364;10.072;2022-10-31T05:02:46;13.40;;;11.83;;
5010;SDS011;2524;54.364;10.072;2022-10-31T05:05:13;13.50;;;10.93;;
5010;SDS011;2524;54.364;10.072;2022-10-31T05:07:43;13.30;;;11.33;;
5010;SDS011;2524;54.364;10.072;2022-10-31T05:10:10;15.67;;;11.97;;
5010;SDS011;2524;54.364;10.072;2022-10-31T05:12:40;16.40;;;13.47;;
5010;SDS011;2524;54.364;10.072;2022-10-31T05:15:11;12.70;;;10.67;;
5010;SDS011;2524;54.364;10.072;2022-10-31T05:17:37;22.00;;;16.00;;
5010;SDS011;2524;54.364;10.072;2022-10-31T05:20:03;23.67;;;17.60;;
5010;SDS011;2524;54.364;10.072;2022-10-31T05:22:28;33.83;;;23.83;;
5010;SDS011;2524;54.364;10.072;2022-10-31T05:24:54;20.83;;;16.23;;
5010;SDS011;2524;54.364;10.072;2022-10-31T05:27:20;16.77;;;12.50;;
5010;SDS011;2524;54.364;10.072;2022-10-31T05:29:46;16.87;;;13.60;;
5010;SDS011;2524;54.364;10.072;2022-10-31T05:32:11;19.70;;;15.53;;
5010;SDS011;2524;54.364;10.072;2022-10-31T05:34:37;15.90;;;12.50;;
5010;SDS011;2524;54.364;10.072;2022-10-31T05:37:02;14.87;;;12.70;;
5010;SDS011;2524;54.364;10.072;2022-10-31T05:39:28;16.73;;;13.70;;
5010;SDS011;2524;54.364;10.072;2022-10-31T05:41:53;15.33;;;12.37;;
5010;SDS011;2524;54.364;10.072;2022-10-31T05:44:19;11.93;;;10.53;;
5010;SDS011;2524;54.364;10.072;2022-10-31T05:46:46;11.00;;;9.20;;
5010;SDS011;2524;54.364;10.072;2022-10-31T05:49:11;14.17;;;11.17;;
5010;SDS011;2524;54.364;10.072;2022-10-31T05:51:37;11.10;;;9.60;;
5010;SDS011;2524;54.364;10.072;2022-10-31T05:54:03;22.47;;;17.20;;
5010;SDS011;2524;54.364;10.072;2022-10-31T05:56:29;18.10;;;13.47;;
5010;SDS011;2524;54.364;10.072;2022-10-31T05:58:55;14.50;;;12.07;;
5010;SDS011;2524;54.364;10.072;2022-10-31T06:01:21;20.90;;;16.33;;
5010;SDS011;2524;54.364;10.072;2022-10-31T06:03:46;17.53;;;13.93;;
5010;SDS011;2524;54.364;10.072;2022-10-31T06:06:12;22.07;;;17.37;;
5010;SDS011;2524;54.364;10.072;2022-10-31T06:08:37;17.03;;;13.47;;
5010;SDS011;2524;54.364;10.072;2022-10-31T06:11:03;11.87;;;10.53;;
5010;SDS011;2524;54.364;10.072;2022-10-31T06:13:29;13.23;;;11.03;;
5010;SDS011;2524;54.364;10.072;2022-10-31T06:15:54;11.83;;;10.47;;
5010;SDS011;2524;54.364;10.072;2022-10-31T06:18:20;10.27;;;9.27;;
5010;SDS011;2524;54.364;10.072;2022-10-31T06:20:45;13.17;;;10.33;;
5010;SDS011;2524;54.364;10.072;2022-10-31T06:23:11;9.13;;;8.17;;
5010;SDS011;2524;54.364;10.072;2022-10-31T06:25:36;10.93;;;9.73;;
5010;SDS011;2524;54.364;10.072;2022-10-31T06:28:02;13.07;;;11.70;;
5010;SDS011;2524;54.364;10.072;2022-10-31T06:30:27;11.27;;;10.13;;
5010;SDS011;2524;54.364;10.072;2022-10-31T06:32:53;9.70;;;8.70;;
5010;SDS011;2524;54.364;10.072;2022-10-31T06:35:19;9.10;;;8.20;;
5010;SDS011;2524;54.364;10.072;2022-10-31T06:37:52;9.93;;;8.93;;
5010;SDS011;2524;54.364;10.072;2022-10-31T06:42:55;10.17;;;9.07;;
5010;SDS011;2524;54.364;10.072;2022-10-31T06:45:22;10.73;;;9.63;;
5010;SDS011;2524;54.364;10.072;2022-10-31T06:47:53;10.13;;;9.03;;
5010;SDS011;2524;54.364;10.072;2022-10-31T06:50:20;9.23;;;8.30;;
5010;SDS011;2524;54.364;10.072;2022-10-31T06:52:51;17.80;;;15.20;;
5010;SDS011;2524;54.364;10.072;2022-10-31T06:55:21;12.27;;;11.00;;
5010;SDS011;2524;54.364;10.072;2022-10-31T06:57:59;11.27;;;10.13;;
5010;SDS011;2524;54.364;10.072;2022-10-31T07:00:26;10.60;;;9.50;;
5010;SDS011;2524;54.364;10.072;2022-10-31T07:02:57;9.90;;;8.90;;
5010;SDS011;2524;54.364;10.072;2022-10-31T07:05:24;10.13;;;8.97;;
5010;SDS011;2524;54.364;10.072;2022-10-31T07:07:54;21.60;;;16.00;;
5010;SDS011;2524;54.364;10.072;2022-10-31T07:10:20;12.00;;;10.80;;
5010;SDS011;2524;54.364;10.072;2022-10-31T07:12:46;11.63;;;10.43;;
5010;SDS011;2524;54.364;10.072;2022-10-31T07:15:12;8.97;;;8.07;;
5010;SDS011;2524;54.364;10.072;2022-10-31T07:17:38;11.43;;;10.23;;
5010;SDS011;2524;54.364;10.072;2022-10-31T07:20:03;9.03;;;8.23;;
5010;SDS011;2524;54.364;10.072;2022-10-31T07:22:33;8.70;;;7.90;;
5010;SDS011;2524;54.364;10.072;2022-10-31T07:25:00;8.60;;;7.80;;
5010;SDS011;2524;54.364;10.072;2022-10-31T07:27:26;8.77;;;7.57;;
5010;SDS011;2524;54.364;10.072;2022-10-31T07:29:51;10.63;;;9.60;;
5010;SDS011;2524;54.364;10.072;2022-10-31T07:32:17;8.83;;;8.03;;
5010;SDS011;2524;54.364;10.072;2022-10-31T07:34:42;11.20;;;9.67;;
5010;SDS011;2524;54.364;10.072;2022-10-31T07:37:08;9.30;;;8.50;;
5010;SDS011;2524;54.364;10.072;2022-10-31T07:39:33;6.97;;;6.37;;
5010;SDS011;2524;54.364;10.072;2022-10-31T07:41:59;7.13;;;6.53;;
5010;SDS011;2524;54.364;10.072;2022-10-31T07:44:25;6.97;;;6.37;;
5010;SDS011;2524;54.364;10.072;2022-10-31T07:46:50;7.40;;;6.80;;
5010;SDS011;2524;54.364;10.072;2022-10-31T07:49:17;7.93;;;7.13;;
5010;SDS011;2524;54.364;10.072;2022-10-31T07:51:42;6.90;;;6.40;;
5010;SDS011;2524;54.364;10.072;2022-10-31T07:54:08;7.57;;;6.83;;
5010;SDS011;2524;54.364;10.072;2022-10-31T07:56:33;7.83;;;7.10;;
5010;SDS011;2524;54.364;10.072;2022-10-31T07:58:59;14.50;;;12.40;;
5010;SDS011;2524;54.364;10.072;2022-10-31T08:01:26;17.00;;;13.90;;
5010;SDS011;2524;54.364;10.072;2022-10-31T08:03:52;14.27;;;12.80;;
5010;SDS011;2524;54.364;10.072;2022-10-31T08:06:18;13.43;;;11.50;;
5010;SDS011;2524;54.364;10.072;2022-10-31T08:08:43;11.97;;;10.70;;
5010;SDS011;2524;54.364;10.072;2022-10-31T08:11:09;10.83;;;9.27;;
5010;SDS011;2524;54.364;10.072;2022-10-31T08:13:34;9.83;;;8.83;;
5010;SDS011;2524;54.364;10.072;2022-10-31T08:16:00;9.10;;;8.20;;
5010;SDS011;2524;54.364;10.072;2022-10-31T08:18:30;15.10;;;12.73;;
5010;SDS011;2524;54.364;10.072;2022-10-31T08:20:55;16.53;;;13.77;;
5010;SDS011;2524;54.364;10.072;2022-10-31T08:23:21;13.20;;;11.80;;
5010;SDS011;2524;54.364;10.072;2022-10-31T08:25:46;11.47;;;10.30;;
5010;SDS011;2524;54.364;10.072;2022-10-31T08:28:12;11.97;;;10.77;;
5010;SDS011;2524;54.364;10.072;2022-10-31T08:30:39;10.70;;;9.70;;
5010;SDS011;2524;54.364;10.072;2022-10-31T08:35:42;9.00;;;8.20;;
5010;SDS011;2524;54.364;10.072;2022-10-31T08:38:09;9.20;;;8.30;;
5010;SDS011;2524;54.364;10.072;2022-10-31T08:40:36;15.03;;;12.57;;
5010;SDS011;2524;54.364;10.072;2022-10-31T08:43:06;11.40;;;10.20;;
5010;SDS011;2524;54.364;10.072;2022-10-31T08:45:36;9.13;;;8.30;;
5010;SDS011;2524;54.364;10.072;2022-10-31T08:48:03;7.23;;;6.63;;
5010;SDS011;2524;54.364;10.072;2022-10-31T08:50:30;6.13;;;5.50;;
5010;SDS011;2524;54.364;10.072;2022-10-31T08:53:09;5.40;;;4.90;;
5010;SDS011;2524;54.364;10.072;2022-10-31T08:55:42;6.43;;;5.70;;
5010;SDS011;2524;54.364;10.072;2022-10-31T08:58:14;6.77;;;6.07;;
5010;SDS011;2524;54.364;10.072;2022-10-31T09:00:42;5.83;;;5.23;;
5010;SDS011;2524;54.364;10.072;2022-10-31T09:03:13;6.73;;;6.00;;
5010;SDS011;2524;54.364;10.072;2022-10-31T09:05:40;11.60;;;7.70;;
5010;SDS011;2524;54.364;10.072;2022-10-31T09:08:07;9.63;;;6.20;;
5010;SDS011;2524;54.364;10.072;2022-10-31T09:10:34;8.00;;;7.20;;
5010;SDS011;2524;54.364;10.072;2022-10-31T09:13:02;7.53;;;6.50;;
5010;SDS011;2524;54.364;10.072;2022-10-31T09:15:31;7.10;;;5.90;;
5010;SDS011;2524;54.364;10.072;2022-10-31T09:17:58;6.70;;;5.93;;
5010;SDS011;2524;54.364;10.072;2022-10-31T09:20:25;7.07;;;5.60;;
5010;SDS011;2524;54.364;10.072;2022-10-31T09:22:58;6.20;;;5.60;;
5010;SDS011;2524;54.364;10.072;2022-10-31T09:25:26;7.43;;;6.27;;
5010;SDS011;2524;54.364;10.072;2022-10-31T09:27:56;10.57;;;6.83;;
5010;SDS011;2524;54.364;10.072;2022-10-31T09:30:22;5.70;;;5.00;;
5010;SDS011;2524;54.364;10.072;2022-10-31T09:32:54;9.10;;;7.13;;
5010;SDS011;2524;54.364;10.072;2022-10-31T09:35:23;7.43;;;5.90;;
5010;SDS011;2524;54.364;10.072;2022-10-31T09:40:22;8.37;;;6.50;;
5010;SDS011;2524;54.364;10.072;2022-10-31T09:50:46;12.97;;;7.83;;
5010;SDS011;2524;54.364;10.072;2022-10-31T09:56:00;13.00;;;8.27;;
5010;SDS011;2524;54.364;10.072;2022-10-31T09:58:29;8.10;;;6.37;;
5010;SDS011;2524;54.364;10.072;2022-10-31T10:01:00;6.00;;;5.00;;
5010;SDS011;2524;54.364;10.072;2022-10-31T10:03:46;10.87;;;6.77;;
5010;SDS011;2524;54.364;10.072;2022-10-31T10:06:19;9.13;;;6.23;;
5010;SDS011;2524;54.364;10.072;2022-10-31T10:08:49;13.67;;;8.60;;
5010;SDS011;2524;54.364;10.072;2022-10-31T10:21:57;7.23;;;5.27;;
5010;SDS011;2524;54.364;10.072;2022-10-31T10:24:46;9.70;;;6.73;;
5010;SDS011;2524;54.364;10.072;2022-10-31T10:30:21;8.53;;;6.30;;
5010;SDS011;2524;54.364;10.072;2022-10-31T10:33:03;7.00;;;5.10;;
5010;SDS011;2524;54.364;10.072;2022-10-31T10:38:10;4.50;;;3.83;;
5010;SDS011;2524;54.364;10.072;2022-10-31T10:40:39;3.20;;;2.90;;
5010;SDS011;2524;54.364;10.072;2022-10-31T10:43:26;3.07;;;2.67;;
5010;SDS011;2524;54.364;10.072;2022-10-31T10:54:26;1.57;;;1.47;;
5010;SDS011;2524;54.364;10.072;2022-10-31T10:57:22;3.43;;;1.90;;
5010;SDS011;2524;54.364;10.072;2022-10-31T11:00:20;3.33;;;2.40;;
5010;SDS011;2524;54.364;10.072;2022-10-31T11:02:48;2.47;;;2.20;;
5010;SDS011;2524;54.364;10.072;2022-10-31T11:05:35;2.13;;;1.97;;
5010;SDS011;2524;54.364;10.072;2022-10-31T11:08:07;1.70;;;1.60;;
5010;SDS011;2524;54.364;10.072;2022-10-31T11:10:33;1.70;;;1.60;;
5010;SDS011;2524;54.364;10.072;2022-10-31T11:13:04;3.60;;;2.30;;
5010;SDS011;2524;54.364;10.072;2022-10-31T11:15:54;2.17;;;1.97;;
5010;SDS011;2524;54.364;10.072;2022-10-31T11:21:00;3.40;;;2.30;;
5010;SDS011;2524;54.364;10.072;2022-10-31T11:23:28;8.20;;;4.00;;
5010;SDS011;2524;54.364;10.072;2022-10-31T11:26:02;3.67;;;3.17;;
5010;SDS011;2524;54.364;10.072;2022-10-31T11:28:30;2.63;;;2.43;;
5010;SDS011;2524;54.364;10.072;2022-10-31T11:30:59;2.43;;;2.23;;
5010;SDS011;2524;54.364;10.072;2022-10-31T11:33:46;1.97;;;1.87;;
5010;SDS011;2524;54.364;10.072;2022-10-31T11:36:26;1.57;;;1.57;;
5010;SDS011;2524;54.364;10.072;2022-10-31T11:38:54;1.77;;;1.77;;
5010;SDS011;2524;54.364;10.072;2022-10-31T11:41:30;3.30;;;2.73;;
5010;SDS011;2524;54.364;10.072;2022-10-31T11:43:59;3.70;;;3.40;;
5010;SDS011;2524;54.364;10.072;2022-10-31T11:48:59;5.93;;;5.33;;
5010;SDS011;2524;54.364;10.072;2022-10-31T11:51:27;4.70;;;4.40;;
5010;SDS011;2524;54.364;10.072;2022-10-31T11:53:55;4.67;;;4.37;;
5010;SDS011;2524;54.364;10.072;2022-10-31T11:56:23;6.17;;;4.67;;
5010;SDS011;2524;54.364;10.072;2022-10-31T11:59:02;4.60;;;4.30;;
5010;SDS011;2524;54.364;10.072;2022-10-31T12:01:31;5.93;;;5.47;;
5010;SDS011;2524;54.364;10.072;2022-10-31T12:04:07;6.57;;;5.97;;
5010;SDS011;2524;54.364;10.072;2022-10-31T12:06:39;11.60;;;7.00;;
5010;SDS011;2524;54.364;10.072;2022-10-31T12:09:28;6.43;;;5.83;;
5010;SDS011;2524;54.364;10.072;2022-10-31T12:17:53;6.60;;;5.77;;
5010;SDS011;2524;54.364;10.072;2022-10-31T12:29:02;7.10;;;6.40;;
5010;SDS011;2524;54.364;10.072;2022-10-31T12:45:33;7.40;;;6.30;;
5010;SDS011;2524;54.364;10.072;2022-10-31T12:48:05;6.23;;;5.63;;
5010;SDS011;2524;54.364;10.072;2022-10-31T12:51:03;5.13;;;4.73;;
5010;SDS011;2524;54.364;10.072;2022-10-31T12:53:48;5.43;;;4.93;;
5010;SDS011;2524;54.364;10.072;2022-10-31T12:58:56;12.13;;;7.97;;
5010;SDS011;2524;54.364;10.072;2022-10-31T13:02:01;9.43;;;7.00;;
5010;SDS011;2524;54.364;10.072;2022-10-31T13:07:19;9.37;;;6.03;;
5010;SDS011;2524;54.364;10.072;2022-10-31T13:09:54;7.47;;;4.90;;
5010;SDS011;2524;54.364;10.072;2022-10-31T13:12:38;8.63;;;4.70;;
5010;SDS011;2524;54.364;10.072;2022-10-31T13:15:41;3.90;;;3.60;;
5010;SDS011;2524;54.364;10.072;2022-10-31T13:18:06;9.40;;;5.30;;
5010;SDS011;2524;54.364;10.072;2022-10-31T13:20:40;5.00;;;3.97;;
5010;SDS011;2524;54.364;10.072;2022-10-31T13:23:28;5.60;;;4.17;;
5010;SDS011;2524;54.364;10.072;2022-10-31T13:25:56;5.07;;;3.40;;
5010;SDS011;2524;54.364;10.072;2022-10-31T13:28:28;3.10;;;2.90;;
5010;SDS011;2524;54.364;10.072;2022-10-31T13:31:20;4.80;;;2.97;;
5010;SDS011;2524;54.364;10.072;2022-10-31T13:33:48;3.33;;;3.13;;
5010;SDS011;2524;54.364;10.072;2022-10-31T13:38:51;6.60;;;4.17;;
5010;SDS011;2524;54.364;10.072;2022-10-31T13:57:14;6.70;;;4.67;;
5010;SDS011;2524;54.364;10.072;2022-10-31T13:59:51;4.77;;;3.40;;
5010;SDS011;2524;54.364;10.072;2022-10-31T14:02:26;9.03;;;4.70;;
5010;SDS011;2524;54.364;10.072;2022-10-31T14:04:59;6.30;;;3.83;;
5010;SDS011;2524;54.364;10.072;2022-10-31T14:07:42;7.90;;;4.37;;
5010;SDS011;2524;54.364;10.072;2022-10-31T14:10:24;4.47;;;4.07;;
5010;SDS011;2524;54.364;10.072;2022-10-31T14:12:53;7.73;;;4.10;;
5010;SDS011;2524;54.364;10.072;2022-10-31T14:15:38;6.17;;;4.47;;
5010;SDS011;2524;54.364;10.072;2022-10-31T14:18:07;12.13;;;6.00;;
5010;SDS011;2524;54.364;10.072;2022-10-31T14:20:53;5.80;;;3.40;;
5010;SDS011;2524;54.364;10.072;2022-10-31T14:23:31;6.73;;;4.10;;
5010;SDS011;2524;54.364;10.072;2022-10-31T14:28:52;7.40;;;4.60;;
5010;SDS011;2524;54.364;10.072;2022-10-31T14:33:53;7.27;;;4.23;;
5010;SDS011;2524;54.364;10.072;2022-10-31T14:36:23;6.60;;;3.97;;
5010;SDS011;2524;54.364;10.072;2022-10-31T14:38:56;10.97;;;4.67;;
5010;SDS011;2524;54.364;10.072;2022-10-31T14:52:46;7.40;;;5.93;;
5010;SDS011;2524;54.364;10.072;2022-10-31T14:55:15;6.87;;;4.23;;
5010;SDS011;2524;54.364;10.072;2022-10-31T14:57:44;12.93;;;6.23;;
5010;SDS011;2524;54.364;10.072;2022-10-31T15:00:32;8.77;;;4.83;;
5010;SDS011;2524;54.364;10.072;2022-10-31T15:03:04;3.80;;;3.60;;
5010;SDS011;2524;54.364;10.072;2022-10-31T15:05:47;8.97;;;6.80;;
5010;SDS011;2524;54.364;10.072;2022-10-31T15:08:27;8.87;;;5.80;;
5010;SDS011;2524;54.364;10.072;2022-10-31T15:10:57;7.30;;;5.43;;
5010;SDS011;2524;54.364;10.072;2022-10-31T15:13:23;9.53;;;6.10;;
5010;SDS011;2524;54.364;10.072;2022-10-31T15:15:49;8.00;;;6.17;;
5010;SDS011;2524;54.364;10.072;2022-10-31T15:18:21;8.03;;;6.17;;
5010;SDS011;2524;54.364;10.072;2022-10-31T15:20:49;9.00;;;5.03;;
5010;SDS011;2524;54.364;10.072;2022-10-31T15:23:17;10.00;;;7.03;;
5010;SDS011;2524;54.364;10.072;2022-10-31T15:25:50;7.57;;;6.30;;
5010;SDS011;2524;54.364;10.072;2022-10-31T15:28:24;8.33;;;5.70;;
5010;SDS011;2524;54.364;10.072;2022-10-31T15:31:00;6.63;;;5.30;;
5010;SDS011;2524;54.364;10.072;2022-10-31T15:33:29;10.40;;;6.40;;
5010;SDS011;2524;54.364;10.072;2022-10-31T15:35:55;6.67;;;5.63;;
5010;SDS011;2524;54.364;10.072;2022-10-31T15:38:22;7.83;;;6.73;;
5010;SDS011;2524;54.364;10.072;2022-10-31T15:40:52;7.37;;;6.57;;
5010;SDS011;2524;54.364;10.072;2022-10-31T15:43:24;6.17;;;4.70;;
5010;SDS011;2524;54.364;10.072;2022-10-31T15:45:50;11.10;;;6.50;;
5010;SDS011;2524;54.364;10.072;2022-10-31T15:48:17;6.10;;;4.83;;
5010;SDS011;2524;54.364;10.072;2022-10-31T15:50:53;8.70;;;6.43;;
5010;SDS011;2524;54.364;10.072;2022-10-31T15:53:34;5.27;;;4.80;;
5010;SDS011;2524;54.364;10.072;2022-10-31T15:56:07;5.00;;;4.37;;
5010;SDS011;2524;54.364;10.072;2022-10-31T15:58:40;4.90;;;4.50;;
5010;SDS011;2524;54.364;10.072;2022-10-31T16:01:21;4.70;;;4.30;;
5010;SDS011;2524;54.364;10.072;2022-10-31T16:06:38;9.53;;;7.57;;
5010;SDS011;2524;54.364;10.072;2022-10-31T16:09:04;8.47;;;7.40;;
5010;SDS011;2524;54.364;10.072;2022-10-31T16:11:48;5.80;;;5.30;;
5010;SDS011;2524;54.364;10.072;2022-10-31T16:14:18;9.70;;;7.70;;
5010;SDS011;2524;54.364;10.072;2022-10-31T16:16:48;9.43;;;6.67;;
5010;SDS011;2524;54.364;10.072;2022-10-31T16:21:46;6.87;;;6.27;;
5010;SDS011;2524;54.364;10.072;2022-10-31T16:24:16;7.00;;;6.30;;
5010;SDS011;2524;54.364;10.072;2022-10-31T16:26:49;7.57;;;6.90;;
5010;SDS011;2524;54.364;10.072;2022-10-31T16:29:28;9.50;;;7.83;;
5010;SDS011;2524;54.364;10.072;2022-10-31T16:31:57;8.10;;;7.30;;
5010;SDS011;2524;54.364;10.072;2022-10-31T16:34:29;7.27;;;6.53;;
5010;SDS011;2524;54.364;10.072;2022-10-31T16:36:54;10.27;;;7.40;;
5010;SDS011;2524;54.364;10.072;2022-10-31T16:39:20;12.90;;;9.17;;
5010;SDS011;2524;54.364;10.072;2022-10-31T16:41:46;7.57;;;6.73;;
5010;SDS011;2524;54.364;10.072;2022-10-31T16:44:19;7.27;;;6.57;;
5010;SDS011;2524;54.364;10.072;2022-10-31T16:46:48;10.13;;;8.90;;
5010;SDS011;2524;54.364;10.072;2022-10-31T16:49:39;11.40;;;9.13;;
5010;SDS011;2524;54.364;10.072;2022-10-31T16:52:11;10.87;;;8.20;;
5010;SDS011;2524;54.364;10.072;2022-10-31T16:54:36;13.10;;;9.47;;
5010;SDS011;2524;54.364;10.072;2022-10-31T16:57:02;11.40;;;7.80;;
5010;SDS011;2524;54.364;10.072;2022-10-31T16:59:29;9.10;;;7.40;;
5010;SDS011;2524;54.364;10.072;2022-10-31T17:01:56;15.60;;;9.70;;
5010;SDS011;2524;54.364;10.072;2022-10-31T17:04:21;8.97;;;8.07;;
5010;SDS011;2524;54.364;10.072;2022-10-31T17:06:47;11.37;;;9.97;;
5010;SDS011;2524;54.364;10.072;2022-10-31T17:09:12;12.47;;;9.87;;
5010;SDS011;2524;54.364;10.072;2022-10-31T17:11:44;11.00;;;9.80;;
5010;SDS011;2524;54.364;10.072;2022-10-31T17:14:12;13.63;;;10.10;;
5010;SDS011;2524;54.364;10.072;2022-10-31T17:16:37;13.70;;;9.07;;
5010;SDS011;2524;54.364;10.072;2022-10-31T17:19:03;14.63;;;10.27;;
5010;SDS011;2524;54.364;10.072;2022-10-31T17:21:28;16.47;;;11.80;;
5010;SDS011;2524;54.364;10.072;2022-10-31T17:23:55;10.87;;;9.43;;
5010;SDS011;2524;54.364;10.072;2022-10-31T17:26:20;11.90;;;10.00;;
5010;SDS011;2524;54.364;10.072;2022-10-31T17:28:47;13.20;;;9.60;;
5010;SDS011;2524;54.364;10.072;2022-10-31T17:31:23;10.70;;;8.53;;
5010;SDS011;2524;54.364;10.072;2022-10-31T17:33:53;10.70;;;8.30;;
5010;SDS011;2524;54.364;10.072;2022-10-31T17:36:19;12.33;;;9.03;;
5010;SDS011;2524;54.364;10.072;2022-10-31T17:38:45;8.40;;;7.57;;
5010;SDS011;2524;54.364;10.072;2022-10-31T17:41:10;7.40;;;6.70;;